sensor_id;sensor_type;location;lat;lon;timestamp;P1;durP1;ratioP1;P2;durP2;ratioP2
79348;SDS011;68817;48.110;11.660;2024-02-21T00:00:28;2.90;;;1.23;;
79348;SDS011;68817;48.110;11.660;2024-02-21T00:02:54;4.93;;;1.98;;
79348;SDS011;68817;48.110;11.660;2024-02-21T00:05:20;4.20;;;1.42;;
79348;SDS011;68817;48.110;11.660;2024-02-21T00:07:45;3.17;;;1.40;;
79348;SDS011;68817;48.110;11.660;2024-02-21T00:10:10;3.55;;;1.10;;
79348;SDS011;68817;48.110;11.660;2024-02-21T00:12:37;3.28;;;1.20;;
79348;SDS011;68817;48.110;11.660;2024-02-21T00:15:02;2.50;;;1.33;;
79348;SDS011;68817;48.110;11.660;2024-02-21T00:17:28;4.13;;;1.42;;
79348;SDS011;68817;48.110;11.660;2024-02-21T00:19:53;3.33;;;1.20;;
79348;SDS011;68817;48.110;11.660;2024-02-21T00:22:19;2.42;;;1.40;;
79348;SDS011;68817;48.110;11.660;2024-02-21T00:24:44;3.17;;;1.30;;
79348;SDS011;68817;48.110;11.660;2024-02-21T00:27:09;2.35;;;1.20;;
79348;SDS011;68817;48.110;11.660;2024-02-21T00:29:35;2.53;;;1.35;;
79348;SDS011;68817;48.110;11.660;2024-02-21T00:32:01;2.47;;;1.17;;
79348;SDS011;68817;48.110;11.660;2024-02-21T00:34:26;3.45;;;1.40;;
79348;SDS011;68817;48.110;11.660;2024-02-21T00:36:51;3.60;;;1.38;;
79348;SDS011;68817;48.110;11.660;2024-02-21T00:39:17;3.05;;;1.40;;
79348;SDS011;68817;48.110;11.660;2024-02-21T00:41:42;2.72;;;1.30;;
79348;SDS011;68817;48.110;11.660;2024-02-21T00:44:07;2.78;;;1.30;;
79348;SDS011;68817;48.110;11.660;2024-02-21T00:46:33;4.43;;;1.48;;
79348;SDS011;68817;48.110;11.660;2024-02-21T00:48:58;4.35;;;1.40;;
79348;SDS011;68817;48.110;11.660;2024-02-21T00:51:24;4.07;;;1.10;;
79348;SDS011;68817;48.110;11.660;2024-02-21T00:53:49;3.40;;;1.30;;
79348;SDS011;68817;48.110;11.660;2024-02-21T00:56:14;2.25;;;1.13;;
79348;SDS011;68817;48.110;11.660;2024-02-21T00:58:41;2.22;;;1.00;;
79348;SDS011;68817;48.110;11.660;2024-02-21T01:01:06;3.33;;;1.33;;
79348;SDS011;68817;48.110;11.660;2024-02-21T01:03:32;3.80;;;1.38;;
79348;SDS011;68817;48.110;11.660;2024-02-21T01:05:57;1.85;;;1.20;;
79348;SDS011;68817;48.110;11.660;2024-02-21T01:08:22;2.85;;;1.30;;
79348;SDS011;68817;48.110;11.660;2024-02-21T01:10:48;2.65;;;1.33;;
79348;SDS011;68817;48.110;11.660;2024-02-21T01:13:13;1.70;;;1.00;;
79348;SDS011;68817;48.110;11.660;2024-02-21T01:15:39;1.75;;;1.00;;
79348;SDS011;68817;48.110;11.660;2024-02-21T01:18:04;2.47;;;1.42;;
79348;SDS011;68817;48.110;11.660;2024-02-21T01:20:30;3.22;;;1.48;;
79348;SDS011;68817;48.110;11.660;2024-02-21T01:22:55;1.67;;;1.00;;
79348;SDS011;68817;48.110;11.660;2024-02-21T01:25:21;2.25;;;1.15;;
79348;SDS011;68817;48.110;11.660;2024-02-21T01:27:46;1.58;;;1.00;;
79348;SDS011;68817;48.110;11.660;2024-02-21T01:30:11;3.08;;;1.40;;
79348;SDS011;68817;48.110;11.660;2024-02-21T01:32:37;4.00;;;1.15;;
79348;SDS011;68817;48.110;11.660;2024-02-21T01:35:02;1.77;;;1.00;;
79348;SDS011;68817;48.110;11.660;2024-02-21T01:37:28;3.58;;;1.10;;
79348;SDS011;68817;48.110;11.660;2024-02-21T01:39:54;2.63;;;1.00;;
79348;SDS011;68817;48.110;11.660;2024-02-21T01:42:19;4.50;;;1.02;;
79348;SDS011;68817;48.110;11.660;2024-02-21T01:44:44;2.88;;;1.05;;
79348;SDS011;68817;48.110;11.660;2024-02-21T01:47:10;1.80;;;0.93;;
79348;SDS011;68817;48.110;11.660;2024-02-21T01:49:36;2.13;;;0.95;;
79348;SDS011;68817;48.110;11.660;2024-02-21T01:52:01;1.85;;;1.00;;
79348;SDS011;68817;48.110;11.660;2024-02-21T01:54:28;2.38;;;0.98;;
79348;SDS011;68817;48.110;11.660;2024-02-21T01:56:53;1.70;;;0.95;;
79348;SDS011;68817;48.110;11.660;2024-02-21T01:59:19;1.98;;;0.88;;
79348;SDS011;68817;48.110;11.660;2024-02-21T02:01:46;2.60;;;1.00;;
79348;SDS011;68817;48.110;11.660;2024-02-21T02:04:13;3.28;;;0.90;;
79348;SDS011;68817;48.110;11.660;2024-02-21T02:06:39;2.40;;;0.95;;
79348;SDS011;68817;48.110;11.660;2024-02-21T02:09:05;1.92;;;0.90;;
79348;SDS011;68817;48.110;11.660;2024-02-21T02:11:31;1.83;;;0.90;;
79348;SDS011;68817;48.110;11.660;2024-02-21T02:13:57;3.00;;;0.90;;
79348;SDS011;68817;48.110;11.660;2024-02-21T02:16:22;1.92;;;1.13;;
79348;SDS011;68817;48.110;11.660;2024-02-21T02:18:48;1.65;;;0.90;;
79348;SDS011;68817;48.110;11.660;2024-02-21T02:21:15;1.73;;;0.80;;
79348;SDS011;68817;48.110;11.660;2024-02-21T02:23:49;2.83;;;1.05;;
79348;SDS011;68817;48.110;11.660;2024-02-21T02:26:14;1.02;;;0.65;;
79348;SDS011;68817;48.110;11.660;2024-02-21T02:28:40;2.35;;;0.80;;
79348;SDS011;68817;48.110;11.660;2024-02-21T02:31:05;2.25;;;0.80;;
79348;SDS011;68817;48.110;11.660;2024-02-21T02:33:31;1.17;;;0.82;;
79348;SDS011;68817;48.110;11.660;2024-02-21T02:35:56;4.78;;;1.00;;
79348;SDS011;68817;48.110;11.660;2024-02-21T02:38:22;1.98;;;0.90;;
79348;SDS011;68817;48.110;11.660;2024-02-21T02:40:48;3.25;;;0.98;;
79348;SDS011;68817;48.110;11.660;2024-02-21T02:43:13;3.55;;;0.98;;
79348;SDS011;68817;48.110;11.660;2024-02-21T02:45:39;3.08;;;1.00;;
79348;SDS011;68817;48.110;11.660;2024-02-21T02:48:04;1.65;;;0.82;;
79348;SDS011;68817;48.110;11.660;2024-02-21T02:50:30;1.33;;;0.70;;
79348;SDS011;68817;48.110;11.660;2024-02-21T02:52:55;2.83;;;0.70;;
79348;SDS011;68817;48.110;11.660;2024-02-21T02:55:21;2.00;;;0.80;;
79348;SDS011;68817;48.110;11.660;2024-02-21T02:57:46;2.15;;;0.90;;
79348;SDS011;68817;48.110;11.660;2024-02-21T03:00:12;0.85;;;0.70;;
79348;SDS011;68817;48.110;11.660;2024-02-21T03:02:39;1.70;;;0.88;;
79348;SDS011;68817;48.110;11.660;2024-02-21T03:05:15;2.85;;;0.80;;
79348;SDS011;68817;48.110;11.660;2024-02-21T03:07:41;1.33;;;0.73;;
79348;SDS011;68817;48.110;11.660;2024-02-21T03:10:07;2.03;;;0.88;;
79348;SDS011;68817;48.110;11.660;2024-02-21T03:12:33;1.38;;;0.63;;
79348;SDS011;68817;48.110;11.660;2024-02-21T03:14:58;1.63;;;0.95;;
79348;SDS011;68817;48.110;11.660;2024-02-21T03:17:24;2.28;;;0.70;;
79348;SDS011;68817;48.110;11.660;2024-02-21T03:19:49;1.77;;;0.70;;
79348;SDS011;68817;48.110;11.660;2024-02-21T03:22:15;2.30;;;0.73;;
79348;SDS011;68817;48.110;11.660;2024-02-21T03:24:41;0.90;;;0.63;;
79348;SDS011;68817;48.110;11.660;2024-02-21T03:27:07;1.58;;;0.60;;
79348;SDS011;68817;48.110;11.660;2024-02-21T03:29:32;1.75;;;0.80;;
79348;SDS011;68817;48.110;11.660;2024-02-21T03:31:57;3.03;;;0.65;;
79348;SDS011;68817;48.110;11.660;2024-02-21T03:34:23;2.03;;;0.90;;
79348;SDS011;68817;48.110;11.660;2024-02-21T03:36:48;0.70;;;0.50;;
79348;SDS011;68817;48.110;11.660;2024-02-21T03:39:14;1.35;;;0.80;;
79348;SDS011;68817;48.110;11.660;2024-02-21T03:41:39;1.48;;;0.82;;
79348;SDS011;68817;48.110;11.660;2024-02-21T03:44:04;0.90;;;0.63;;
79348;SDS011;68817;48.110;11.660;2024-02-21T03:46:30;2.00;;;0.90;;
79348;SDS011;68817;48.110;11.660;2024-02-21T03:48:55;2.13;;;1.25;;
79348;SDS011;68817;48.110;11.660;2024-02-21T03:51:21;1.70;;;0.65;;
79348;SDS011;68817;48.110;11.660;2024-02-21T03:53:46;2.63;;;0.82;;
79348;SDS011;68817;48.110;11.660;2024-02-21T03:56:12;1.13;;;0.63;;
79348;SDS011;68817;48.110;11.660;2024-02-21T03:58:37;1.88;;;0.88;;
79348;SDS011;68817;48.110;11.660;2024-02-21T04:01:03;1.83;;;0.75;;
79348;SDS011;68817;48.110;11.660;2024-02-21T04:03:28;1.48;;;0.70;;
79348;SDS011;68817;48.110;11.660;2024-02-21T04:05:55;3.00;;;0.90;;
79348;SDS011;68817;48.110;11.660;2024-02-21T04:08:21;1.67;;;0.82;;
79348;SDS011;68817;48.110;11.660;2024-02-21T04:10:47;2.10;;;0.70;;
79348;SDS011;68817;48.110;11.660;2024-02-21T04:13:12;2.60;;;0.70;;
79348;SDS011;68817;48.110;11.660;2024-02-21T04:15:38;2.55;;;0.75;;
79348;SDS011;68817;48.110;11.660;2024-02-21T04:18:03;3.17;;;0.60;;
79348;SDS011;68817;48.110;11.660;2024-02-21T04:20:29;2.25;;;0.63;;
79348;SDS011;68817;48.110;11.660;2024-02-21T04:22:55;1.20;;;0.60;;
79348;SDS011;68817;48.110;11.660;2024-02-21T04:25:20;1.92;;;0.80;;
79348;SDS011;68817;48.110;11.660;2024-02-21T04:27:46;2.10;;;0.73;;
79348;SDS011;68817;48.110;11.660;2024-02-21T04:30:11;1.38;;;0.80;;
79348;SDS011;68817;48.110;11.660;2024-02-21T04:32:37;1.05;;;0.60;;
79348;SDS011;68817;48.110;11.660;2024-02-21T04:35:03;2.78;;;0.80;;
79348;SDS011;68817;48.110;11.660;2024-02-21T04:37:28;1.42;;;0.80;;
79348;SDS011;68817;48.110;11.660;2024-02-21T04:39:54;0.75;;;0.60;;
79348;SDS011;68817;48.110;11.660;2024-02-21T04:42:19;2.92;;;0.60;;
79348;SDS011;68817;48.110;11.660;2024-02-21T04:44:45;1.30;;;0.80;;
79348;SDS011;68817;48.110;11.660;2024-02-21T04:47:10;1.27;;;0.68;;
79348;SDS011;68817;48.110;11.660;2024-02-21T04:49:35;0.82;;;0.60;;
79348;SDS011;68817;48.110;11.660;2024-02-21T04:52:01;1.13;;;0.63;;
79348;SDS011;68817;48.110;11.660;2024-02-21T04:54:27;0.93;;;0.60;;
79348;SDS011;68817;48.110;11.660;2024-02-21T04:56:52;0.65;;;0.40;;
79348;SDS011;68817;48.110;11.660;2024-02-21T04:59:18;2.97;;;0.82;;
79348;SDS011;68817;48.110;11.660;2024-02-21T05:01:43;2.20;;;0.77;;
79348;SDS011;68817;48.110;11.660;2024-02-21T05:04:09;1.30;;;0.80;;
79348;SDS011;68817;48.110;11.660;2024-02-21T05:06:38;2.30;;;0.63;;
79348;SDS011;68817;48.110;11.660;2024-02-21T05:09:04;1.50;;;0.52;;
79348;SDS011;68817;48.110;11.660;2024-02-21T05:11:29;1.50;;;0.80;;
79348;SDS011;68817;48.110;11.660;2024-02-21T05:13:55;1.67;;;0.65;;
79348;SDS011;68817;48.110;11.660;2024-02-21T05:16:21;1.67;;;0.77;;
79348;SDS011;68817;48.110;11.660;2024-02-21T05:18:46;1.75;;;1.00;;
79348;SDS011;68817;48.110;11.660;2024-02-21T05:21:11;1.20;;;0.60;;
79348;SDS011;68817;48.110;11.660;2024-02-21T05:23:37;1.80;;;0.82;;
79348;SDS011;68817;48.110;11.660;2024-02-21T05:26:04;2.35;;;0.70;;
79348;SDS011;68817;48.110;11.660;2024-02-21T05:28:30;1.40;;;0.60;;
79348;SDS011;68817;48.110;11.660;2024-02-21T05:30:55;1.42;;;0.80;;
79348;SDS011;68817;48.110;11.660;2024-02-21T05:33:21;1.95;;;0.70;;
79348;SDS011;68817;48.110;11.660;2024-02-21T05:35:46;1.70;;;0.73;;
79348;SDS011;68817;48.110;11.660;2024-02-21T05:38:13;2.17;;;0.80;;
79348;SDS011;68817;48.110;11.660;2024-02-21T05:40:39;2.38;;;0.75;;
79348;SDS011;68817;48.110;11.660;2024-02-21T05:43:04;1.15;;;0.70;;
79348;SDS011;68817;48.110;11.660;2024-02-21T05:45:29;3.90;;;0.80;;
79348;SDS011;68817;48.110;11.660;2024-02-21T05:47:55;2.08;;;0.60;;
79348;SDS011;68817;48.110;11.660;2024-02-21T05:50:22;1.33;;;0.88;;
79348;SDS011;68817;48.110;11.660;2024-02-21T05:52:51;1.42;;;0.85;;
79348;SDS011;68817;48.110;11.660;2024-02-21T05:55:17;1.52;;;0.90;;
79348;SDS011;68817;48.110;11.660;2024-02-21T05:57:42;1.05;;;0.57;;
79348;SDS011;68817;48.110;11.660;2024-02-21T06:00:08;1.77;;;0.80;;
79348;SDS011;68817;48.110;11.660;2024-02-21T06:02:40;1.63;;;0.70;;
79348;SDS011;68817;48.110;11.660;2024-02-21T06:05:06;0.85;;;0.60;;
79348;SDS011;68817;48.110;11.660;2024-02-21T06:07:34;1.00;;;0.60;;
79348;SDS011;68817;48.110;11.660;2024-02-21T06:10:01;2.50;;;0.60;;
79348;SDS011;68817;48.110;11.660;2024-02-21T06:12:27;1.17;;;0.80;;
79348;SDS011;68817;48.110;11.660;2024-02-21T06:14:52;2.10;;;0.65;;
79348;SDS011;68817;48.110;11.660;2024-02-21T06:17:18;0.43;;;0.40;;
79348;SDS011;68817;48.110;11.660;2024-02-21T06:19:43;1.45;;;0.68;;
79348;SDS011;68817;48.110;11.660;2024-02-21T06:22:09;1.15;;;0.68;;
79348;SDS011;68817;48.110;11.660;2024-02-21T06:24:35;1.98;;;0.80;;
79348;SDS011;68817;48.110;11.660;2024-02-21T06:27:01;2.17;;;0.60;;
79348;SDS011;68817;48.110;11.660;2024-02-21T06:29:27;0.70;;;0.57;;
79348;SDS011;68817;48.110;11.660;2024-02-21T06:31:53;1.00;;;0.65;;
79348;SDS011;68817;48.110;11.660;2024-02-21T06:34:18;0.90;;;0.60;;
79348;SDS011;68817;48.110;11.660;2024-02-21T06:36:44;1.55;;;0.60;;
79348;SDS011;68817;48.110;11.660;2024-02-21T06:39:10;3.47;;;0.90;;
79348;SDS011;68817;48.110;11.660;2024-02-21T06:41:36;0.85;;;0.55;;
79348;SDS011;68817;48.110;11.660;2024-02-21T06:44:02;1.27;;;0.50;;
79348;SDS011;68817;48.110;11.660;2024-02-21T06:46:28;2.00;;;0.60;;
79348;SDS011;68817;48.110;11.660;2024-02-21T06:48:54;1.65;;;0.98;;
79348;SDS011;68817;48.110;11.660;2024-02-21T06:51:21;2.17;;;0.70;;
79348;SDS011;68817;48.110;11.660;2024-02-21T06:53:47;1.80;;;0.85;;
79348;SDS011;68817;48.110;11.660;2024-02-21T06:56:13;1.23;;;0.55;;
79348;SDS011;68817;48.110;11.660;2024-02-21T06:58:38;2.22;;;0.60;;
79348;SDS011;68817;48.110;11.660;2024-02-21T07:01:04;2.50;;;0.70;;
79348;SDS011;68817;48.110;11.660;2024-02-21T07:03:29;1.63;;;0.68;;
79348;SDS011;68817;48.110;11.660;2024-02-21T07:05:55;1.55;;;0.70;;
79348;SDS011;68817;48.110;11.660;2024-02-21T07:08:20;1.45;;;0.50;;
79348;SDS011;68817;48.110;11.660;2024-02-21T07:10:46;2.42;;;0.70;;
79348;SDS011;68817;48.110;11.660;2024-02-21T07:13:12;1.20;;;0.68;;
79348;SDS011;68817;48.110;11.660;2024-02-21T07:15:38;1.20;;;0.70;;
79348;SDS011;68817;48.110;11.660;2024-02-21T07:18:03;1.50;;;0.77;;
79348;SDS011;68817;48.110;11.660;2024-02-21T07:20:29;1.85;;;0.60;;
79348;SDS011;68817;48.110;11.660;2024-02-21T07:22:55;3.45;;;0.90;;
79348;SDS011;68817;48.110;11.660;2024-02-21T07:25:20;1.23;;;0.65;;
79348;SDS011;68817;48.110;11.660;2024-02-21T07:27:45;1.77;;;0.63;;
79348;SDS011;68817;48.110;11.660;2024-02-21T07:30:11;0.70;;;0.50;;
79348;SDS011;68817;48.110;11.660;2024-02-21T07:32:37;1.50;;;0.50;;
79348;SDS011;68817;48.110;11.660;2024-02-21T07:35:02;1.20;;;0.70;;
79348;SDS011;68817;48.110;11.660;2024-02-21T07:37:28;1.30;;;0.70;;
79348;SDS011;68817;48.110;11.660;2024-02-21T07:39:53;0.88;;;0.70;;
79348;SDS011;68817;48.110;11.660;2024-02-21T07:42:18;1.83;;;0.93;;
79348;SDS011;68817;48.110;11.660;2024-02-21T07:44:45;1.20;;;0.60;;
79348;SDS011;68817;48.110;11.660;2024-02-21T07:47:10;1.15;;;0.60;;
79348;SDS011;68817;48.110;11.660;2024-02-21T07:49:45;1.00;;;0.68;;
79348;SDS011;68817;48.110;11.660;2024-02-21T07:52:14;1.67;;;0.63;;
79348;SDS011;68817;48.110;11.660;2024-02-21T07:54:40;2.45;;;0.70;;
79348;SDS011;68817;48.110;11.660;2024-02-21T07:57:06;1.17;;;0.43;;
79348;SDS011;68817;48.110;11.660;2024-02-21T07:59:32;1.85;;;0.80;;
79348;SDS011;68817;48.110;11.660;2024-02-21T08:01:57;0.50;;;0.30;;
79348;SDS011;68817;48.110;11.660;2024-02-21T08:04:23;2.70;;;0.70;;
79348;SDS011;68817;48.110;11.660;2024-02-21T08:06:55;0.77;;;0.50;;
79348;SDS011;68817;48.110;11.660;2024-02-21T08:09:21;1.20;;;0.52;;
79348;SDS011;68817;48.110;11.660;2024-02-21T08:11:47;1.55;;;0.75;;
79348;SDS011;68817;48.110;11.660;2024-02-21T08:14:14;1.30;;;0.60;;
79348;SDS011;68817;48.110;11.660;2024-02-21T08:16:41;1.10;;;0.63;;
79348;SDS011;68817;48.110;11.660;2024-02-21T08:19:07;1.85;;;0.68;;
79348;SDS011;68817;48.110;11.660;2024-02-21T08:21:32;2.67;;;0.88;;
79348;SDS011;68817;48.110;11.660;2024-02-21T08:23:58;1.08;;;0.80;;
79348;SDS011;68817;48.110;11.660;2024-02-21T08:26:23;0.88;;;0.65;;
79348;SDS011;68817;48.110;11.660;2024-02-21T08:28:49;1.35;;;0.70;;
79348;SDS011;68817;48.110;11.660;2024-02-21T08:31:19;1.63;;;0.80;;
79348;SDS011;68817;48.110;11.660;2024-02-21T08:33:45;1.67;;;0.70;;
79348;SDS011;68817;48.110;11.660;2024-02-21T08:36:17;3.20;;;0.80;;
79348;SDS011;68817;48.110;11.660;2024-02-21T08:38:45;2.35;;;0.70;;
79348;SDS011;68817;48.110;11.660;2024-02-21T08:41:11;2.80;;;0.77;;
79348;SDS011;68817;48.110;11.660;2024-02-21T08:43:37;1.48;;;0.65;;
79348;SDS011;68817;48.110;11.660;2024-02-21T08:46:02;1.52;;;0.82;;
79348;SDS011;68817;48.110;11.660;2024-02-21T08:48:28;0.65;;;0.50;;
79348;SDS011;68817;48.110;11.660;2024-02-21T08:50:53;1.80;;;0.45;;
79348;SDS011;68817;48.110;11.660;2024-02-21T08:53:19;1.60;;;0.60;;
79348;SDS011;68817;48.110;11.660;2024-02-21T08:55:45;0.85;;;0.45;;
79348;SDS011;68817;48.110;11.660;2024-02-21T08:58:11;1.17;;;0.50;;
79348;SDS011;68817;48.110;11.660;2024-02-21T09:00:36;0.88;;;0.50;;
79348;SDS011;68817;48.110;11.660;2024-02-21T09:03:02;0.68;;;0.32;;
79348;SDS011;68817;48.110;11.660;2024-02-21T09:05:28;1.15;;;0.50;;
79348;SDS011;68817;48.110;11.660;2024-02-21T09:07:53;1.20;;;0.68;;
79348;SDS011;68817;48.110;11.660;2024-02-21T09:10:18;1.08;;;0.40;;
79348;SDS011;68817;48.110;11.660;2024-02-21T09:12:45;1.38;;;0.70;;
79348;SDS011;68817;48.110;11.660;2024-02-21T09:15:10;1.17;;;0.50;;
79348;SDS011;68817;48.110;11.660;2024-02-21T09:17:35;1.08;;;0.50;;
79348;SDS011;68817;48.110;11.660;2024-02-21T09:20:01;0.85;;;0.45;;
79348;SDS011;68817;48.110;11.660;2024-02-21T09:22:28;0.70;;;0.50;;
79348;SDS011;68817;48.110;11.660;2024-02-21T09:24:54;1.95;;;0.57;;
79348;SDS011;68817;48.110;11.660;2024-02-21T09:27:20;1.75;;;0.52;;
79348;SDS011;68817;48.110;11.660;2024-02-21T09:29:45;1.00;;;0.50;;
79348;SDS011;68817;48.110;11.660;2024-02-21T09:32:11;1.67;;;0.45;;
79348;SDS011;68817;48.110;11.660;2024-02-21T09:34:37;2.47;;;0.60;;
79348;SDS011;68817;48.110;11.660;2024-02-21T09:37:03;1.33;;;0.60;;
79348;SDS011;68817;48.110;11.660;2024-02-21T09:39:28;0.60;;;0.43;;
79348;SDS011;68817;48.110;11.660;2024-02-21T09:41:56;0.85;;;0.43;;
79348;SDS011;68817;48.110;11.660;2024-02-21T09:49:29;1.58;;;0.40;;
79348;SDS011;68817;48.110;11.660;2024-02-21T09:52:02;0.43;;;0.30;;
79348;SDS011;68817;48.110;11.660;2024-02-21T09:54:29;0.52;;;0.30;;
79348;SDS011;68817;48.110;11.660;2024-02-21T09:56:58;0.63;;;0.40;;
79348;SDS011;68817;48.110;11.660;2024-02-21T09:59:27;0.25;;;0.25;;
79348;SDS011;68817;48.110;11.660;2024-02-21T10:01:54;1.40;;;0.45;;
79348;SDS011;68817;48.110;11.660;2024-02-21T10:04:20;2.65;;;0.52;;
79348;SDS011;68817;48.110;11.660;2024-02-21T10:06:46;1.92;;;0.40;;
79348;SDS011;68817;48.110;11.660;2024-02-21T10:09:24;1.25;;;0.45;;
79348;SDS011;68817;48.110;11.660;2024-02-21T10:11:52;1.85;;;0.40;;
79348;SDS011;68817;48.110;11.660;2024-02-21T10:14:18;0.68;;;0.38;;
79348;SDS011;68817;48.110;11.660;2024-02-21T10:16:45;0.32;;;0.30;;
79348;SDS011;68817;48.110;11.660;2024-02-21T10:19:18;0.90;;;0.47;;
79348;SDS011;68817;48.110;11.660;2024-02-21T10:21:44;1.52;;;0.50;;
79348;SDS011;68817;48.110;11.660;2024-02-21T10:24:11;0.70;;;0.40;;
79348;SDS011;68817;48.110;11.660;2024-02-21T10:26:37;0.57;;;0.40;;
79348;SDS011;68817;48.110;11.660;2024-02-21T10:29:03;1.35;;;0.47;;
79348;SDS011;68817;48.110;11.660;2024-02-21T10:31:29;0.65;;;0.50;;
79348;SDS011;68817;48.110;11.660;2024-02-21T10:36:24;2.25;;;0.40;;
79348;SDS011;68817;48.110;11.660;2024-02-21T10:38:50;0.65;;;0.45;;
79348;SDS011;68817;48.110;11.660;2024-02-21T10:41:16;1.83;;;0.75;;
79348;SDS011;68817;48.110;11.660;2024-02-21T10:43:45;3.20;;;0.73;;
79348;SDS011;68817;48.110;11.660;2024-02-21T10:46:14;2.03;;;0.40;;
79348;SDS011;68817;48.110;11.660;2024-02-21T10:48:44;0.90;;;0.40;;
79348;SDS011;68817;48.110;11.660;2024-02-21T10:56:32;1.13;;;0.60;;
79348;SDS011;68817;48.110;11.660;2024-02-21T10:59:02;1.58;;;0.70;;
79348;SDS011;68817;48.110;11.660;2024-02-21T11:01:29;0.47;;;0.40;;
79348;SDS011;68817;48.110;11.660;2024-02-21T11:03:57;1.20;;;0.45;;
79348;SDS011;68817;48.110;11.660;2024-02-21T11:06:33;0.70;;;0.40;;
79348;SDS011;68817;48.110;11.660;2024-02-21T11:09:06;1.63;;;0.60;;
79348;SDS011;68817;48.110;11.660;2024-02-21T11:16:35;1.08;;;0.60;;
79348;SDS011;68817;48.110;11.660;2024-02-21T11:19:07;0.65;;;0.40;;
79348;SDS011;68817;48.110;11.660;2024-02-21T11:21:34;0.20;;;0.20;;
79348;SDS011;68817;48.110;11.660;2024-02-21T11:24:03;1.02;;;0.40;;
79348;SDS011;68817;48.110;11.660;2024-02-21T11:26:29;0.85;;;0.45;;
79348;SDS011;68817;48.110;11.660;2024-02-21T11:28:56;0.70;;;0.40;;
79348;SDS011;68817;48.110;11.660;2024-02-21T11:31:22;0.60;;;0.45;;
79348;SDS011;68817;48.110;11.660;2024-02-21T11:33:48;1.27;;;0.50;;
79348;SDS011;68817;48.110;11.660;2024-02-21T11:36:26;0.70;;;0.45;;
79348;SDS011;68817;48.110;11.660;2024-02-21T11:38:52;0.55;;;0.30;;
79348;SDS011;68817;48.110;11.660;2024-02-21T11:41:20;1.00;;;0.30;;
79348;SDS011;68817;48.110;11.660;2024-02-21T11:43:46;0.95;;;0.60;;
79348;SDS011;68817;48.110;11.660;2024-02-21T11:46:13;0.88;;;0.45;;
79348;SDS011;68817;48.110;11.660;2024-02-21T11:48:39;1.73;;;0.35;;
79348;SDS011;68817;48.110;11.660;2024-02-21T11:51:06;1.48;;;0.40;;
79348;SDS011;68817;48.110;11.660;2024-02-21T11:53:31;1.73;;;0.30;;
79348;SDS011;68817;48.110;11.660;2024-02-21T11:55:58;0.98;;;0.30;;
79348;SDS011;68817;48.110;11.660;2024-02-21T11:58:24;0.40;;;0.28;;
79348;SDS011;68817;48.110;11.660;2024-02-21T12:00:50;0.40;;;0.30;;
79348;SDS011;68817;48.110;11.660;2024-02-21T12:03:15;1.85;;;0.40;;
79348;SDS011;68817;48.110;11.660;2024-02-21T12:05:41;0.95;;;0.25;;
79348;SDS011;68817;48.110;11.660;2024-02-21T12:08:07;0.55;;;0.30;;
79348;SDS011;68817;48.110;11.660;2024-02-21T12:10:35;0.40;;;0.30;;
79348;SDS011;68817;48.110;11.660;2024-02-21T12:13:19;0.57;;;0.30;;
79348;SDS011;68817;48.110;11.660;2024-02-21T12:15:48;0.63;;;0.30;;
79348;SDS011;68817;48.110;11.660;2024-02-21T12:18:14;0.40;;;0.20;;
79348;SDS011;68817;48.110;11.660;2024-02-21T12:20:40;0.98;;;0.30;;
79348;SDS011;68817;48.110;11.660;2024-02-21T12:23:08;0.57;;;0.30;;
79348;SDS011;68817;48.110;11.660;2024-02-21T12:25:34;0.40;;;0.30;;
79348;SDS011;68817;48.110;11.660;2024-02-21T12:27:59;0.25;;;0.22;;
79348;SDS011;68817;48.110;11.660;2024-02-21T12:30:25;0.60;;;0.40;;
79348;SDS011;68817;48.110;11.660;2024-02-21T12:32:51;0.30;;;0.20;;
79348;SDS011;68817;48.110;11.660;2024-02-21T12:35:17;0.47;;;0.35;;
79348;SDS011;68817;48.110;11.660;2024-02-21T12:37:42;0.57;;;0.20;;
79348;SDS011;68817;48.110;11.660;2024-02-21T12:40:08;0.75;;;0.30;;
79348;SDS011;68817;48.110;11.660;2024-02-21T12:42:35;1.02;;;0.35;;
79348;SDS011;68817;48.110;11.660;2024-02-21T12:45:03;0.40;;;0.17;;
79348;SDS011;68817;48.110;11.660;2024-02-21T12:47:29;0.60;;;0.30;;
79348;SDS011;68817;48.110;11.660;2024-02-21T12:49:54;0.60;;;0.30;;
79348;SDS011;68817;48.110;11.660;2024-02-21T12:52:20;0.35;;;0.30;;
79348;SDS011;68817;48.110;11.660;2024-02-21T12:54:45;0.55;;;0.28;;
79348;SDS011;68817;48.110;11.660;2024-02-21T12:57:11;0.30;;;0.30;;
79348;SDS011;68817;48.110;11.660;2024-02-21T12:59:36;0.85;;;0.20;;
79348;SDS011;68817;48.110;11.660;2024-02-21T13:02:01;1.42;;;0.40;;
79348;SDS011;68817;48.110;11.660;2024-02-21T13:04:27;0.30;;;0.20;;
79348;SDS011;68817;48.110;11.660;2024-02-21T13:06:53;1.00;;;0.20;;
79348;SDS011;68817;48.110;11.660;2024-02-21T13:09:18;0.52;;;0.28;;
79348;SDS011;68817;48.110;11.660;2024-02-21T13:11:44;0.32;;;0.30;;
79348;SDS011;68817;48.110;11.660;2024-02-21T13:14:12;0.57;;;0.40;;
79348;SDS011;68817;48.110;11.660;2024-02-21T13:16:37;0.70;;;0.15;;
79348;SDS011;68817;48.110;11.660;2024-02-21T13:19:06;0.77;;;0.30;;
79348;SDS011;68817;48.110;11.660;2024-02-21T13:21:33;0.55;;;0.30;;
79348;SDS011;68817;48.110;11.660;2024-02-21T13:24:01;0.63;;;0.30;;
79348;SDS011;68817;48.110;11.660;2024-02-21T13:26:27;0.38;;;0.30;;
79348;SDS011;68817;48.110;11.660;2024-02-21T13:28:52;0.90;;;0.47;;
79348;SDS011;68817;48.110;11.660;2024-02-21T13:31:18;0.55;;;0.38;;
79348;SDS011;68817;48.110;11.660;2024-02-21T13:33:43;0.30;;;0.20;;
79348;SDS011;68817;48.110;11.660;2024-02-21T13:36:12;0.50;;;0.30;;
79348;SDS011;68817;48.110;11.660;2024-02-21T13:38:37;2.00;;;0.38;;
79348;SDS011;68817;48.110;11.660;2024-02-21T13:41:04;0.63;;;0.30;;
79348;SDS011;68817;48.110;11.660;2024-02-21T13:43:30;0.30;;;0.30;;
79348;SDS011;68817;48.110;11.660;2024-02-21T13:45:56;0.88;;;0.40;;
79348;SDS011;68817;48.110;11.660;2024-02-21T13:48:23;0.40;;;0.28;;
79348;SDS011;68817;48.110;11.660;2024-02-21T13:50:49;0.80;;;0.40;;
79348;SDS011;68817;48.110;11.660;2024-02-21T13:53:14;0.40;;;0.30;;
79348;SDS011;68817;48.110;11.660;2024-02-21T13:55:40;1.25;;;0.40;;
79348;SDS011;68817;48.110;11.660;2024-02-21T13:58:06;0.65;;;0.25;;
79348;SDS011;68817;48.110;11.660;2024-02-21T14:00:31;0.22;;;0.22;;
79348;SDS011;68817;48.110;11.660;2024-02-21T14:02:59;0.30;;;0.20;;
79348;SDS011;68817;48.110;11.660;2024-02-21T14:05:26;0.40;;;0.40;;
79348;SDS011;68817;48.110;11.660;2024-02-21T14:07:51;0.85;;;0.50;;
79348;SDS011;68817;48.110;11.660;2024-02-21T14:10:19;1.38;;;0.43;;
79348;SDS011;68817;48.110;11.660;2024-02-21T14:12:51;0.70;;;0.32;;
79348;SDS011;68817;48.110;11.660;2024-02-21T14:15:17;0.17;;;0.15;;
79348;SDS011;68817;48.110;11.660;2024-02-21T14:17:42;1.50;;;0.40;;
79348;SDS011;68817;48.110;11.660;2024-02-21T14:20:08;1.10;;;0.32;;
79348;SDS011;68817;48.110;11.660;2024-02-21T14:22:34;2.00;;;0.40;;
79348;SDS011;68817;48.110;11.660;2024-02-21T14:24:59;1.48;;;0.40;;
79348;SDS011;68817;48.110;11.660;2024-02-21T14:27:25;0.57;;;0.30;;
79348;SDS011;68817;48.110;11.660;2024-02-21T14:29:51;0.30;;;0.20;;
79348;SDS011;68817;48.110;11.660;2024-02-21T14:32:16;2.17;;;0.40;;
79348;SDS011;68817;48.110;11.660;2024-02-21T14:34:42;0.47;;;0.20;;
79348;SDS011;68817;48.110;11.660;2024-02-21T14:37:07;0.35;;;0.20;;
79348;SDS011;68817;48.110;11.660;2024-02-21T14:39:33;1.35;;;0.20;;
79348;SDS011;68817;48.110;11.660;2024-02-21T14:41:59;0.68;;;0.40;;
79348;SDS011;68817;48.110;11.660;2024-02-21T14:44:25;0.77;;;0.28;;